Time;durP1;ratioP1;P1;durP2;ratioP2;P2;SDS_P1;SDS_P2;PMS_P1;PMS_P2;Temp;Humidity;BMP_temperature;BMP_pressure;BME280_temperature;BME280_humidity;BME280_pressure;Samples;Min_cycle;Max_cycle;Signal;HPM_P1;HPM_P2
2022/10/24 00:00:22;;;;;;;11.45;3.50;;;;;;;16.22;79.95;100153.97;4185346;28;20098;-66
2022/10/24 00:02:24;;;;;;;11.07;3.40;;;;;;;16.20;80.25;100150.50;4181048;28;20037;-66
2022/10/24 00:04:27;;;;;;;9.85;3.00;;;;;;;16.21;80.12;100152.25;4178632;28;20399;-67
2022/10/24 00:06:30;;;;;;;12.85;4.03;;;;;;;16.23;79.87;100160.97;4178819;28;20106;-66
2022/10/24 00:08:33;;;;;;;14.98;3.47;;;;;;;16.23;79.67;100160.97;4185060;28;20067;-66
2022/10/24 00:10:36;;;;;;;9.35;2.75;;;;;;;16.22;79.67;100167.09;4180072;28;20045;-66
2022/10/24 00:12:39;;;;;;;15.95;4.28;;;;;;;16.21;79.80;100160.13;4189771;28;20445;-66
2022/10/24 00:14:44;;;;;;;12.20;3.50;;;;;;;16.18;79.73;100158.41;4188467;28;20055;-67
2022/10/24 00:16:46;;;;;;;11.80;4.55;;;;;;;16.18;79.66;100152.31;4183371;28;20037;-66
2022/10/24 00:18:49;;;;;;;11.50;3.22;;;;;;;16.11;79.86;100151.50;4181471;28;20041;-66
2022/10/24 00:20:52;;;;;;;11.43;3.70;;;;;;;16.05;80.06;100152.47;4179036;28;20040;-67
2022/10/24 00:22:55;;;;;;;11.23;3.45;;;;;;;16.03;79.99;100153.34;4192357;28;20127;-66
2022/10/24 00:24:58;;;;;;;11.80;4.07;;;;;;;16.01;79.94;100156.00;4184359;28;20115;-67
2022/10/24 00:27:01;;;;;;;11.05;3.58;;;;;;;15.98;79.73;100163.91;4181095;28;20403;-66
2022/10/24 00:29:04;;;;;;;10.88;3.72;;;;;;;16.08;79.75;100153.28;4177957;28;20041;-67
2022/10/24 00:31:12;;;;;;;13.27;3.88;;;;;;;16.01;79.76;100155.16;4190861;28;20411;-66
2022/10/24 00:33:15;;;;;;;10.85;3.38;;;;;;;15.94;79.94;100153.50;4187479;28;20441;-67
2022/10/24 00:35:18;;;;;;;9.65;3.20;;;;;;;15.89;80.16;100143.06;4181895;28;20036;-67
2022/10/24 00:37:21;;;;;;;12.63;3.97;;;;;;;15.94;80.02;100136.00;4178457;28;20036;-67
2022/10/24 00:39:24;;;;;;;8.75;3.22;;;;;;;15.90;79.88;100142.16;4182731;28;20106;-67
2022/10/24 00:41:33;;;;;;;14.20;3.92;;;;;;;15.91;80.20;100140.41;4178205;28;20040;-67
2022/10/24 00:43:36;;;;;;;13.73;4.35;;;;;;;15.90;79.97;100141.28;4181807;28;20071;-67
2022/10/24 00:45:43;;;;;;;13.85;3.90;;;;;;;15.93;80.18;100151.75;4178277;28;20033;-67
2022/10/24 00:47:47;;;;;;;11.73;3.70;;;;;;;15.86;80.53;100143.97;4189158;28;20036;-67
2022/10/24 00:49:59;;;;;;;13.15;4.07;;;;;;;15.88;80.51;100139.56;4178003;28;20491;-67
2022/10/24 00:52:07;;;;;;;15.38;3.83;;;;;;;15.89;80.26;100140.44;4179685;28;20083;-67
2022/10/24 00:54:13;;;;;;;12.95;4.57;;;;;;;15.90;80.35;100142.16;4180829;28;20040;-67
2022/10/24 00:56:19;;;;;;;11.48;4.05;;;;;;;15.90;80.38;100151.78;4187242;28;20127;-67
2022/10/24 00:58:25;;;;;;;13.10;3.22;;;;;;;15.89;80.36;100140.44;4185562;28;20044;-67
2022/10/24 01:00:31;;;;;;;11.23;3.78;;;;;;;15.91;80.55;100153.53;4187055;28;20040;-67
2022/10/24 01:02:34;;;;;;;9.68;3.05;;;;;;;15.88;80.36;100151.81;4190266;28;20028;-67
2022/10/24 01:04:38;;;;;;;13.13;3.50;;;;;;;15.85;80.19;100149.22;4179514;28;20068;-67
2022/10/24 01:06:47;;;;;;;15.45;3.55;;;;;;;15.84;79.96;100147.47;4182379;28;20036;-67
2022/10/24 01:09:01;;;;;;;13.32;4.30;;;;;;;15.87;79.72;100147.44;4180822;28;20032;-67
2022/10/24 01:11:16;;;;;;;11.77;3.60;;;;;;;15.83;79.84;100135.28;4187348;28;20124;-67
2022/10/24 01:13:31;;;;;;;14.52;4.60;;;;;;;15.85;79.85;100139.59;4177059;28;20115;-67
2022/10/24 01:15:43;;;;;;;12.05;3.95;;;;;;;15.81;79.54;100144.91;4188417;28;20037;-67
2022/10/24 01:17:55;;;;;;;17.30;3.60;;;;;;;15.84;79.19;100137.00;4185278;28;20073;-67
2022/10/24 01:20:16;;;;;;;16.05;3.30;;;;;;;15.85;79.43;100136.13;4179701;28;20037;-67
2022/10/24 01:22:22;;;;;;;13.75;4.13;;;;;;;15.84;79.36;100137.88;4183080;28;20482;-67
2022/10/24 01:24:48;;;;;;;10.18;3.67;;;;;;;15.83;79.36;100140.53;4190133;28;20036;-67
2022/10/24 01:27:15;;;;;;;14.75;3.90;;;;;;;15.79;79.66;100130.97;4179056;28;20086;-67
2022/10/24 01:29:23;;;;;;;14.80;4.22;;;;;;;15.81;79.18;100126.56;4192344;28;20482;-67
2022/10/24 01:31:34;;;;;;;10.40;3.30;;;;;;;15.80;79.46;100125.69;4187614;28;20045;-67
2022/10/24 01:33:40;;;;;;;15.00;4.47;;;;;;;15.74;79.22;100120.50;4183275;28;20404;-67
2022/10/24 01:35:49;;;;;;;13.80;3.78;;;;;;;15.75;79.43;100131.84;4163541;28;20042;-67
2022/10/24 01:37:59;;;;;;;13.65;4.05;;;;;;;15.73;79.68;100125.78;4187142;28;20037;-67
2022/10/24 01:40:10;;;;;;;10.82;3.30;;;;;;;15.70;79.64;100122.28;4192433;28;20065;-67
2022/10/24 01:42:15;;;;;;;11.73;3.63;;;;;;;15.70;79.69;100117.03;4192852;28;20041;-67
2022/10/24 01:44:24;;;;;;;10.93;3.92;;;;;;;15.76;79.69;100102.16;4187929;28;20099;-67
2022/10/24 01:46:34;;;;;;;15.15;3.63;;;;;;;15.71;79.61;100110.91;4186937;28;20067;-67
2022/10/24 01:48:41;;;;;;;10.93;2.58;;;;;;;15.73;79.49;100107.44;4182904;28;20544;-67
2022/10/24 01:50:47;;;;;;;11.07;3.42;;;;;;;15.74;79.50;100120.50;4180125;28;20487;-67
2022/10/24 01:52:51;;;;;;;16.08;3.50;;;;;;;15.74;79.27;100122.25;4185509;28;20040;-67
2022/10/24 01:54:54;;;;;;;10.52;4.15;;;;;;;15.73;79.50;100112.66;4189930;28;20130;-67
2022/10/24 01:56:57;;;;;;;11.63;3.25;;;;;;;15.78;78.96;100101.25;4178638;28;20577;-67
2022/10/24 01:59:07;;;;;;;8.43;3.13;;;;;;;15.76;78.84;100099.53;4178479;28;20091;-67
2022/10/24 02:01:13;;;;;;;11.93;3.75;;;;;;;15.77;78.70;100101.22;4182113;28;20453;-67
2022/10/24 02:03:24;;;;;;;10.10;3.08;;;;;;;15.78;78.78;100111.72;4190197;28;20495;-67
2022/10/24 02:05:30;;;;;;;12.63;3.65;;;;;;;15.79;78.70;100117.84;4190360;28;20037;-67
2022/10/24 02:07:36;;;;;;;13.05;3.40;;;;;;;15.82;78.33;100125.69;4188089;28;20082;-67
2022/10/24 02:09:41;;;;;;;11.05;3.15;;;;;;;15.80;78.89;100124.81;4190060;28;20065;-67
2022/10/24 02:11:47;;;;;;;21.33;3.50;;;;;;;15.79;78.56;100123.97;4187068;28;20033;-67
2022/10/24 02:13:55;;;;;;;9.52;2.90;;;;;;;15.79;78.52;100133.59;4176583;28;20037;-67
2022/10/24 02:15:59;;;;;;;11.52;3.58;;;;;;;15.77;78.45;100124.81;4181618;28;20044;-67
2022/10/24 02:18:03;;;;;;;10.90;3.58;;;;;;;15.76;78.68;100118.72;4172982;28;20550;-67
2022/10/24 02:20:09;;;;;;;9.43;3.20;;;;;;;15.76;78.40;100116.09;4182774;28;20041;-67
2022/10/24 02:22:23;;;;;;;11.38;3.15;;;;;;;15.75;78.12;100116.13;4185191;28;20444;-67
2022/10/24 02:24:31;;;;;;;17.90;3.78;;;;;;;15.75;78.14;100121.38;4194136;28;20033;-66
2022/10/24 02:26:39;;;;;;;13.32;3.13;;;;;;;15.80;78.19;100116.94;4177354;28;20061;-67
2022/10/24 02:28:47;;;;;;;12.00;2.97;;;;;;;15.80;77.74;100109.09;4180335;28;20414;-67
2022/10/24 02:30:53;;;;;;;9.85;2.85;;;;;;;15.76;78.08;100099.53;4181325;28;20045;-67
2022/10/24 02:33:00;;;;;;;8.77;2.97;;;;;;;15.77;78.03;100098.59;4181659;28;20037;-67
2022/10/24 02:35:05;;;;;;;15.02;3.42;;;;;;;15.76;78.23;100103.00;4181653;28;20037;-67
2022/10/24 02:37:11;;;;;;;12.63;3.75;;;;;;;15.73;78.44;100094.31;4183666;28;20060;-67
2022/10/24 02:39:16;;;;;;;11.23;3.10;;;;;;;15.74;78.34;100098.66;4190226;28;20033;-67
2022/10/24 02:41:22;;;;;;;12.38;3.80;;;;;;;15.73;78.57;100102.19;4180046;28;20055;-67
2022/10/24 02:43:27;;;;;;;15.43;4.80;;;;;;;15.76;78.45;100096.91;4178723;28;20040;-67
2022/10/24 02:45:30;;;;;;;17.13;3.70;;;;;;;15.76;78.15;100097.75;4186940;28;20055;-67
2022/10/24 02:47:35;;;;;;;7.45;2.47;;;;;;;15.75;78.04;100090.78;4188175;28;20478;-67
2022/10/24 02:49:38;;;;;;;10.98;2.95;;;;;;;15.73;78.02;100092.56;4182435;28;20099;-67
2022/10/24 02:51:44;;;;;;;15.75;3.47;;;;;;;15.73;78.29;100103.03;4188168;28;20072;-67
2022/10/24 02:53:49;;;;;;;10.23;3.63;;;;;;;15.73;78.09;100097.81;4188583;28;20048;-67
2022/10/24 02:55:52;;;;;;;11.80;2.83;;;;;;;15.74;77.78;100093.41;4177785;28;20560;-67
2022/10/24 02:57:55;;;;;;;9.93;3.88;;;;;;;15.80;77.42;100082.88;4179529;28;20037;-67
2022/10/24 02:59:58;;;;;;;11.57;3.53;;;;;;;15.77;77.50;100083.78;4183555;28;20037;-67
2022/10/24 03:02:01;;;;;;;8.25;2.88;;;;;;;15.78;77.42;100077.66;4192388;28;20041;-66
2022/10/24 03:04:04;;;;;;;10.43;2.95;;;;;;;15.76;77.46;100084.66;4187452;28;21315;-67
2022/10/24 03:06:07;;;;;;;6.90;2.38;;;;;;;15.79;77.43;100086.41;4179808;28;20048;-67
2022/10/24 03:08:11;;;;;;;16.15;3.40;;;;;;;15.77;77.27;100093.38;4190175;28;20048;-67
2022/10/24 03:10:16;;;;;;;10.77;2.58;;;;;;;15.80;77.39;100085.50;4179567;28;20041;-66
2022/10/24 03:12:19;;;;;;;15.57;3.08;;;;;;;15.84;77.21;100087.19;4179606;28;20033;-67
2022/10/24 03:14:21;;;;;;;10.52;3.72;;;;;;;15.86;76.97;100099.41;4179616;28;20029;-67
2022/10/24 03:16:25;;;;;;;11.43;2.78;;;;;;;15.84;76.83;100102.91;4184554;28;20053;-67
2022/10/24 03:18:27;;;;;;;10.35;2.38;;;;;;;15.83;77.14;100106.44;4189442;28;20039;-67
2022/10/24 03:20:30;;;;;;;13.63;2.97;;;;;;;15.82;76.81;100105.56;4187972;28;20467;-66
2022/10/24 03:22:33;;;;;;;15.15;3.33;;;;;;;15.93;76.35;100110.69;4187742;28;20051;-67
2022/10/24 03:24:36;;;;;;;15.20;3.42;;;;;;;15.87;76.75;100111.63;4182063;28;20047;-67
2022/10/24 03:26:50;;;;;;;12.73;3.78;;;;;;;15.92;76.51;100114.19;4178875;28;20029;-67
2022/10/24 03:28:53;;;;;;;7.60;2.72;;;;;;;15.93;76.03;100125.53;4189444;28;20052;-67
2022/10/24 03:30:56;;;;;;;9.25;3.08;;;;;;;15.95;75.77;100132.50;4181455;28;20044;-67
2022/10/24 03:32:59;;;;;;;10.95;3.00;;;;;;;16.01;75.75;100140.28;4185425;28;20037;-67
2022/10/24 03:35:02;;;;;;;8.00;2.70;;;;;;;16.02;75.73;100134.16;4186810;28;20491;-67
2022/10/24 03:37:05;;;;;;;13.38;3.28;;;;;;;16.00;75.91;100143.81;4186343;28;20080;-68
2022/10/24 03:39:07;;;;;;;8.68;3.40;;;;;;;16.08;75.44;100140.19;4178485;28;21994;-68
2022/10/24 03:41:10;;;;;;;11.82;3.15;;;;;;;16.03;75.69;100135.88;4180106;28;20517;-68
2022/10/24 03:43:15;;;;;;;9.57;3.10;;;;;;;16.01;75.78;100134.16;4188344;28;20075;-68
2022/10/24 03:45:17;;;;;;;6.93;2.70;;;;;;;16.03;75.84;100135.88;4185172;28;20040;-67
2022/10/24 03:47:20;;;;;;;15.45;3.42;;;;;;;16.01;75.78;100135.03;4191852;28;20033;-68
2022/10/24 03:49:23;;;;;;;12.65;3.28;;;;;;;15.99;75.87;100131.56;4184867;28;20036;-68
2022/10/24 03:51:26;;;;;;;11.00;3.10;;;;;;;15.96;76.08;100131.63;4178708;28;20059;-68
2022/10/24 03:53:28;;;;;;;10.65;2.70;;;;;;;15.94;76.48;100133.38;4180800;28;20037;-68
2022/10/24 03:55:31;;;;;;;13.90;3.50;;;;;;;16.00;76.05;100132.44;4179284;28;20036;-68
2022/10/24 03:57:34;;;;;;;10.45;2.67;;;;;;;15.98;76.12;100126.34;4178722;28;20376;-68
2022/10/24 03:59:38;;;;;;;10.73;3.00;;;;;;;15.99;76.14;100121.09;4178061;28;20040;-68
2022/10/24 04:01:41;;;;;;;12.63;3.25;;;;;;;16.00;76.27;100117.56;4179461;28;20452;-68
2022/10/24 04:03:44;;;;;;;9.05;3.25;;;;;;;15.98;76.14;100121.97;4188504;28;20503;-68
2022/10/24 04:05:47;;;;;;;10.00;2.85;;;;;;;15.98;76.25;100114.09;4180455;28;20037;-67
2022/10/24 04:07:50;;;;;;;11.55;2.72;;;;;;;15.99;76.25;100110.59;4187511;28;20024;-65
2022/10/24 04:09:53;;;;;;;9.68;3.35;;;;;;;16.02;75.95;100113.16;4181331;28;20036;-67
2022/10/24 04:11:55;;;;;;;7.88;3.00;;;;;;;16.05;75.83;100115.75;4181954;28;20395;-70
2022/10/24 04:13:59;;;;;;;12.75;3.08;;;;;;;16.02;75.69;100114.94;4179273;28;20091;-69
2022/10/24 04:16:09;;;;;;;12.45;2.65;;;;;;;16.05;75.32;100125.38;4179356;28;20045;-70
2022/10/24 04:18:12;;;;;;;14.52;3.35;;;;;;;16.00;75.78;100122.81;4180816;28;20033;-69
2022/10/24 04:20:18;;;;;;;16.05;3.05;;;;;;;15.98;76.18;100124.59;4177061;28;20041;-69
2022/10/24 04:22:21;;;;;;;8.27;2.10;;;;;;;15.95;75.66;100129.88;4176984;28;20049;-69
2022/10/24 04:24:24;;;;;;;8.70;2.90;;;;;;;15.93;76.10;100131.66;4187602;28;20102;-69
2022/10/24 04:26:27;;;;;;;13.60;4.05;;;;;;;15.98;75.67;100131.59;4180418;28;20040;-69
2022/10/24 04:28:29;;;;;;;15.23;3.03;;;;;;;16.00;75.60;100133.31;4179711;28;20376;-69
2022/10/24 04:30:32;;;;;;;15.52;4.13;;;;;;;15.99;75.61;100134.19;4175704;28;20131;-69
2022/10/24 04:32:37;;;;;;;10.60;3.15;;;;;;;15.98;75.66;100127.19;4186618;28;20035;-69
2022/10/24 04:34:40;;;;;;;9.65;2.55;;;;;;;15.96;76.03;100128.09;4177862;28;20083;-69
2022/10/24 04:36:42;;;;;;;13.23;3.03;;;;;;;15.98;75.85;100129.81;4178644;28;20041;-69
2022/10/24 04:38:45;;;;;;;11.60;2.88;;;;;;;15.96;76.01;100131.63;4187964;28;20035;-69
2022/10/24 04:40:49;;;;;;;14.75;3.15;;;;;;;15.91;75.84;100125.53;4185854;28;20441;-69
2022/10/24 04:42:52;;;;;;;10.93;3.33;;;;;;;15.96;75.70;100115.88;4185138;28;20043;-69
2022/10/24 04:44:55;;;;;;;10.52;2.55;;;;;;;15.97;76.02;100120.22;4180217;28;20045;-69
2022/10/24 04:46:57;;;;;;;7.68;2.90;;;;;;;15.91;75.97;100122.94;4178839;28;20138;-69
2022/10/24 04:49:01;;;;;;;7.43;3.22;;;;;;;15.97;75.63;100121.97;4179975;28;20033;-69
2022/10/24 04:51:05;;;;;;;11.55;3.17;;;;;;;15.95;76.00;100119.38;4183667;28;20111;-68
2022/10/24 04:53:09;;;;;;;10.73;2.33;;;;;;;15.98;75.74;100114.09;4190231;28;20052;-68
2022/10/24 04:55:11;;;;;;;9.88;3.15;;;;;;;15.99;75.36;100107.09;4178227;28;20071;-69
2022/10/24 04:57:14;;;;;;;12.55;3.50;;;;;;;16.00;75.19;100101.84;4175229;28;20041;-68
2022/10/24 04:59:17;;;;;;;10.10;3.20;;;;;;;15.98;75.60;100114.09;4187420;28;20041;-69
2022/10/24 05:01:20;;;;;;;8.30;2.50;;;;;;;15.98;75.52;100119.34;4188426;28;20036;-68
2022/10/24 05:03:23;;;;;;;9.07;3.13;;;;;;;16.03;74.80;100121.88;4187259;28;20498;-69
2022/10/24 05:05:27;;;;;;;15.45;3.42;;;;;;;16.00;75.27;100122.81;4188127;28;20036;-69
2022/10/24 05:07:30;;;;;;;13.20;2.92;;;;;;;15.98;75.31;100124.59;4184842;28;20037;-69
2022/10/24 05:09:33;;;;;;;16.23;3.05;;;;;;;16.00;75.05;100132.44;4179696;28;20483;-68
2022/10/24 05:14:05;;;;;;;15.10;2.92;;;;;;;15.95;74.85;100127.25;4178769;28;20041;-69
2022/10/24 05:16:08;;;;;;;10.77;2.92;;;;;;;15.97;74.97;100148.19;4178540;28;20037;-68
2022/10/24 05:18:11;;;;;;;9.57;2.83;;;;;;;15.94;74.71;100141.22;4180490;28;20028;-68
2022/10/24 05:20:14;;;;;;;16.98;3.80;;;;;;;15.94;75.17;100135.13;4187893;28;20033;-69
2022/10/24 05:22:18;;;;;;;9.95;3.65;;;;;;;15.97;74.79;100140.34;4181220;28;20041;-68
2022/10/24 05:24:21;;;;;;;9.40;3.42;;;;;;;15.91;75.01;100143.03;4178867;28;20099;-69
2022/10/24 05:26:23;;;;;;;11.40;2.95;;;;;;;15.84;75.29;100144.84;4184240;28;20037;-68
2022/10/24 05:28:26;;;;;;;8.82;2.60;;;;;;;15.84;75.68;100150.09;4188535;28;20040;-68
2022/10/24 05:30:29;;;;;;;9.07;3.28;;;;;;;15.81;75.54;100155.38;4187598;28;20041;-69
2022/10/24 05:32:32;;;;;;;7.38;2.80;;;;;;;15.78;75.51;100163.25;4183275;28;20045;-68
2022/10/24 05:34:39;;;;;;;10.18;3.15;;;;;;;15.74;76.19;100180.78;4179136;28;20033;-69
2022/10/24 05:36:42;;;;;;;10.27;3.22;;;;;;;15.75;75.86;100173.78;4184324;28;20398;-68
2022/10/24 05:38:46;;;;;;;7.50;3.47;;;;;;;15.75;76.39;100173.78;4187750;28;20128;-68
2022/10/24 05:40:50;;;;;;;14.55;3.58;;;;;;;15.68;76.13;100175.59;4179945;28;20071;-69
2022/10/24 05:42:53;;;;;;;19.08;3.45;;;;;;;15.76;75.56;100180.78;4176437;28;20067;-69
2022/10/24 05:44:56;;;;;;;11.13;2.95;;;;;;;15.72;75.66;100185.16;4185988;28;20068;-68
2022/10/24 05:46:59;;;;;;;13.38;3.22;;;;;;;15.71;75.83;100183.41;4181048;28;20476;-68
2022/10/24 05:49:02;;;;;;;14.55;3.35;;;;;;;15.72;75.52;100185.16;4179126;28;20064;-68
2022/10/24 05:51:05;;;;;;;9.20;3.28;;;;;;;15.71;75.33;100191.28;4178863;28;20052;-68
2022/10/24 05:53:09;;;;;;;15.52;3.55;;;;;;;15.94;74.70;100187.56;4183296;28;20471;-68
2022/10/24 05:55:13;;;;;;;14.38;3.60;;;;;;;15.89;74.54;100185.00;4185445;28;20036;-69
2022/10/24 05:57:19;;;;;;;13.35;3.97;;;;;;;15.96;74.57;100185.78;4190600;28;20037;-68
2022/10/24 05:59:22;;;;;;;7.80;3.10;;;;;;;15.95;74.63;100189.31;4188879;28;20537;-68
2022/10/24 06:01:25;;;;;;;12.77;3.92;;;;;;;16.01;74.46;100184.84;4194074;28;20173;-69
2022/10/24 06:03:28;;;;;;;11.93;4.07;;;;;;;15.99;74.82;100184.00;4181073;28;20640;-68
2022/10/24 06:05:30;;;;;;;11.38;3.85;;;;;;;15.97;75.10;100185.75;4181813;28;20041;-68
2022/10/24 06:07:34;;;;;;;18.13;4.38;;;;;;;16.00;74.83;100182.25;4182822;28;20074;-69
2022/10/24 06:09:36;;;;;;;15.05;3.50;;;;;;;16.02;74.78;100188.34;4182706;28;20094;-69
2022/10/24 06:11:41;;;;;;;13.63;3.97;;;;;;;16.00;74.87;100185.75;4181774;28;20095;-68
2022/10/24 06:13:44;;;;;;;12.88;3.75;;;;;;;15.99;74.90;100189.25;4182167;28;20094;-68
2022/10/24 06:15:47;;;;;;;11.90;3.92;;;;;;;16.03;74.94;100185.72;4182814;28;20041;-69
2022/10/24 06:17:50;;;;;;;10.90;3.28;;;;;;;16.07;75.10;100197.00;4181990;28;20041;-68
2022/10/24 06:19:53;;;;;;;11.27;3.75;;;;;;;16.07;75.07;100211.88;4182461;28;20037;-68
2022/10/24 06:21:55;;;;;;;15.93;3.92;;;;;;;16.13;74.98;100207.41;4181656;28;20487;-69
2022/10/24 06:23:58;;;;;;;19.70;3.80;;;;;;;16.10;74.62;100206.59;4189615;28;20479;-69
2022/10/24 06:26:01;;;;;;;20.23;4.53;;;;;;;16.18;74.54;100215.25;4190841;28;20071;-68
2022/10/24 06:28:06;;;;;;;16.90;4.60;;;;;;;16.20;74.60;100209.06;4195819;28;20410;-69
2022/10/24 06:30:10;;;;;;;10.43;3.53;;;;;;;16.15;74.49;100210.91;4193258;28;20037;-68
2022/10/24 06:32:13;;;;;;;13.00;3.60;;;;;;;16.17;74.72;100218.75;4183302;28;20037;-69
2022/10/24 06:34:16;;;;;;;15.50;4.55;;;;;;;16.20;74.71;100218.72;4170519;28;20144;-69
2022/10/24 06:36:19;;;;;;;13.15;4.10;;;;;;;16.20;74.63;100218.72;4178435;28;20498;-68
2022/10/24 06:38:22;;;;;;;17.30;4.68;;;;;;;16.29;74.21;100213.34;4179830;28;20040;-68
2022/10/24 06:40:25;;;;;;;13.73;3.85;;;;;;;16.27;74.62;100223.00;4182580;28;20044;-68
2022/10/24 06:42:27;;;;;;;15.65;3.20;;;;;;;16.27;74.79;100219.50;4184139;28;20048;-68
2022/10/24 06:44:32;;;;;;;16.70;5.03;;;;;;;16.28;74.75;100221.22;4186616;28;20037;-69
2022/10/24 06:46:35;;;;;;;10.20;3.63;;;;;;;16.27;74.68;100228.25;4181362;28;20082;-68
2022/10/24 06:48:38;;;;;;;17.85;5.70;;;;;;;16.31;74.70;100229.94;4176693;28;20036;-69
2022/10/24 06:50:41;;;;;;;12.07;3.15;;;;;;;16.30;74.86;100233.44;4179604;28;20045;-69
2022/10/24 06:52:43;;;;;;;12.18;4.00;;;;;;;16.30;75.17;100233.44;4180947;28;20045;-69
2022/10/24 06:54:46;;;;;;;17.27;4.32;;;;;;;16.37;74.92;100232.47;4181838;28;20045;-68
2022/10/24 06:56:49;;;;;;;12.52;4.05;;;;;;;16.28;75.38;100232.59;4182042;28;20048;-68
2022/10/24 06:58:52;;;;;;;15.65;4.28;;;;;;;16.29;74.89;100236.94;4181983;28;20090;-68
2022/10/24 07:00:56;;;;;;;18.73;4.60;;;;;;;16.26;74.92;100231.75;4181266;28;20086;-68
2022/10/24 07:02:59;;;;;;;16.48;4.57;;;;;;;16.27;75.21;100228.25;4178125;28;20160;-68
2022/10/24 07:05:02;;;;;;;13.38;4.13;;;;;;;16.31;75.14;100229.03;4182736;28;20041;-68
2022/10/24 07:07:05;;;;;;;15.80;4.93;;;;;;;16.35;75.33;100238.63;4189503;28;20134;-68
2022/10/24 07:09:08;;;;;;;17.05;4.95;;;;;;;16.34;74.90;100250.00;4184482;28;20040;-69
2022/10/24 07:11:16;;;;;;;15.15;3.67;;;;;;;16.36;74.60;100249.09;4189423;28;20033;-68
2022/10/24 07:13:18;;;;;;;15.20;5.22;;;;;;;16.35;74.89;100247.38;4187502;28;20041;-68
2022/10/24 07:15:21;;;;;;;13.85;5.07;;;;;;;16.35;75.11;100247.38;4187192;28;20525;-68
2022/10/24 07:17:25;;;;;;;21.70;4.82;;;;;;;16.25;75.37;100247.50;4179211;28;20041;-68
2022/10/24 07:19:28;;;;;;;15.95;4.32;;;;;;;16.37;74.87;100240.34;4179024;28;20468;-68
2022/10/24 07:21:34;;;;;;;21.45;4.30;;;;;;;16.34;75.12;100253.50;4180360;28;20048;-68
2022/10/24 07:23:37;;;;;;;15.60;4.03;;;;;;;16.40;75.21;100257.81;4181159;28;20090;-68
2022/10/24 07:25:41;;;;;;;16.90;4.13;;;;;;;16.44;75.14;100258.63;4172189;28;20045;-68
2022/10/24 07:27:43;;;;;;;18.15;5.20;;;;;;;16.40;74.90;100261.28;4188184;28;20444;-68
2022/10/24 07:29:46;;;;;;;9.55;3.10;;;;;;;16.39;75.33;100253.44;4180767;28;20119;-69
2022/10/24 07:31:49;;;;;;;13.63;4.40;;;;;;;16.49;75.36;100254.19;4176378;28;20408;-69
2022/10/24 07:33:54;;;;;;;10.18;3.08;;;;;;;16.48;75.28;100253.31;4176170;28;20395;-68
2022/10/24 07:35:56;;;;;;;;;;;;;;;16.40;75.37;100248.16;4180745;28;20037;-68
2022/10/24 07:37:59;;;;;;;11.20;3.13;;;;;;;16.43;75.46;100251.63;4184463;28;20326;-68
2022/10/24 07:40:02;;;;;;;11.55;3.45;;;;;;;16.49;75.62;100256.81;4187749;28;20037;-68
2022/10/24 07:42:05;;;;;;;14.68;4.38;;;;;;;16.50;75.57;100248.91;4180370;28;20040;-69
2022/10/24 07:44:09;;;;;;;11.95;3.60;;;;;;;16.46;75.75;100243.75;4181025;28;20450;-69
2022/10/24 07:46:14;;;;;;;;;;;;;;;16.45;75.86;100249.88;4179650;28;20453;-68
2022/10/24 07:48:17;;;;;;;15.85;3.33;;;;;;;16.55;75.52;100261.97;4172038;28;20379;-69
2022/10/24 07:50:21;;;;;;;7.45;2.60;;;;;;;16.48;75.88;100255.06;4178538;28;20033;-68
2022/10/24 07:52:24;;;;;;;14.65;3.45;;;;;;;16.47;75.98;100253.31;4172730;28;20094;-68
2022/10/24 07:54:27;;;;;;;12.57;3.85;;;;;;;16.45;76.36;100255.13;4179630;28;20044;-69
2022/10/24 07:56:34;;;;;;;12.20;2.65;;;;;;;16.55;75.58;100257.59;4178665;28;20044;-68
2022/10/24 07:58:37;;;;;;;16.50;3.10;;;;;;;16.49;76.07;100262.06;4181247;28;20045;-68
2022/10/24 08:00:40;;;;;;;9.90;3.33;;;;;;;16.51;75.89;100260.28;4181270;28;20224;-68
2022/10/24 08:02:47;;;;;;;8.43;3.03;;;;;;;16.55;76.12;100264.59;4181278;28;20041;-68
2022/10/24 08:04:50;;;;;;;8.40;3.20;;;;;;;16.56;76.32;100261.09;4179615;28;20064;-68
2022/10/24 08:06:55;;;;;;;7.68;2.58;;;;;;;16.62;76.25;100262.75;4177492;28;20041;-68
2022/10/24 08:08:58;;;;;;;11.07;3.38;;;;;;;16.57;76.37;100252.31;4172900;28;20380;-68
2022/10/24 08:11:01;;;;;;;11.98;3.28;;;;;;;16.57;76.22;100254.94;4181145;28;20041;-69
2022/10/24 08:13:04;;;;;;;9.00;3.17;;;;;;;16.64;76.06;100259.22;4181044;28;20045;-68
2022/10/24 08:15:07;;;;;;;12.48;3.20;;;;;;;16.65;76.12;100263.59;4180006;28;20041;-69
2022/10/24 08:17:10;;;;;;;13.20;3.35;;;;;;;16.67;76.13;100258.31;4181104;28;20036;-69
2022/10/24 08:19:13;;;;;;;10.25;3.05;;;;;;;16.74;75.94;100257.34;4179193;28;20037;-69
2022/10/24 08:21:19;;;;;;;12.95;3.58;;;;;;;16.72;76.12;100254.72;4174739;28;20033;-69
2022/10/24 08:23:23;;;;;;;8.95;3.63;;;;;;;16.74;76.12;100257.34;4176569;28;20037;-70
2022/10/24 08:25:32;;;;;;;15.60;3.35;;;;;;;16.70;76.29;100258.25;4181014;28;20052;-70
2022/10/24 08:27:37;;;;;;;9.80;3.03;;;;;;;16.70;76.61;100256.50;4173327;28;20041;-69
2022/10/24 08:29:41;;;;;;;12.13;3.60;;;;;;;16.78;76.35;100261.66;4178945;28;20037;-68
2022/10/24 08:31:43;;;;;;;12.00;3.20;;;;;;;16.86;75.69;100266.78;4180897;28;20087;-68
2022/10/24 08:33:47;;;;;;;8.95;3.03;;;;;;;16.80;75.84;100280.00;4180658;28;20445;-68
2022/10/24 08:35:50;;;;;;;10.70;2.58;;;;;;;16.75;75.99;100270.44;4179046;28;20040;-68
2022/10/24 08:37:53;;;;;;;9.43;2.53;;;;;;;16.77;76.31;100266.94;4180929;28;20556;-68
2022/10/24 08:39:57;;;;;;;12.73;2.58;;;;;;;16.78;76.31;100259.03;4179047;28;20737;-68
2022/10/24 08:42:03;;;;;;;9.05;2.90;;;;;;;16.79;76.36;100250.25;4195014;28;20131;-69
2022/10/24 08:44:21;;;;;;;12.45;2.65;;;;;;;16.78;75.75;100250.25;4174515;28;20041;-69
2022/10/24 08:46:38;;;;;;;13.93;4.00;;;;;;;16.75;75.69;100241.56;4178802;28;20156;-68
2022/10/24 08:48:48;;;;;;;16.83;4.38;;;;;;;16.91;75.38;100244.00;4179645;28;20124;-68
2022/10/24 08:50:56;;;;;;;11.70;3.60;;;;;;;16.91;75.88;100251.88;4170225;28;20103;-68
2022/10/24 08:53:04;;;;;;;11.90;3.58;;;;;;;16.81;75.81;100261.59;4180679;28;20041;-69
2022/10/24 08:55:13;;;;;;;20.27;4.57;;;;;;;16.83;75.89;100261.59;4179750;28;20040;-68
2022/10/24 08:57:37;;;;;;;11.90;3.03;;;;;;;16.82;76.18;100252.84;4179289;28;20037;-68
2022/10/24 08:59:40;;;;;;;9.23;3.70;;;;;;;16.84;76.13;100247.56;4179479;28;20231;-68
2022/10/24 09:01:47;;;;;;;12.13;3.03;;;;;;;16.88;76.06;100244.91;4179840;28;20040;-68
2022/10/24 09:03:52;;;;;;;18.50;4.20;;;;;;;16.97;76.00;100243.00;4171984;28;20037;-68
2022/10/24 09:06:03;;;;;;;14.38;3.75;;;;;;;17.02;75.61;100235.94;4178665;28;20049;-69
2022/10/24 09:08:20;;;;;;;12.05;3.60;;;;;;;17.00;75.74;100245.63;4179309;28;20056;-68
2022/10/24 09:10:36;;;;;;;11.63;3.50;;;;;;;17.04;75.75;100245.53;4180471;28;20033;-68
2022/10/24 09:12:39;;;;;;;11.55;3.20;;;;;;;17.03;76.02;100246.41;4180534;28;20045;-69
2022/10/24 09:14:44;;;;;;;15.00;3.70;;;;;;;17.10;75.99;100255.94;4161743;28;20512;-68
2022/10/24 09:16:52;;;;;;;16.02;3.72;;;;;;;17.15;75.59;100258.47;4170190;28;20044;-68
2022/10/24 09:18:57;;;;;;;11.63;3.42;;;;;;;17.06;75.91;100249.00;4171538;28;20075;-68
2022/10/24 09:21:00;;;;;;;9.65;3.17;;;;;;;17.12;75.85;100262.94;4171149;28;20041;-68
2022/10/24 09:23:05;;;;;;;11.45;3.72;;;;;;;17.13;75.38;100264.66;4179443;28;20041;-69
2022/10/24 09:25:12;;;;;;;15.73;3.92;;;;;;;17.12;75.16;100260.31;4179051;28;20041;-68
2022/10/24 09:27:21;;;;;;;12.02;3.47;;;;;;;17.16;75.43;100264.63;4182320;28;20033;-69
2022/10/24 09:29:31;;;;;;;12.68;3.72;;;;;;;17.22;75.36;100260.13;4183201;28;20044;-68
2022/10/24 09:31:35;;;;;;;8.75;2.90;;;;;;;17.26;75.08;100258.31;4174085;28;20096;-68
2022/10/24 09:33:41;;;;;;;10.40;3.13;;;;;;;17.33;74.71;100262.56;4173992;28;20098;-68
2022/10/24 09:35:44;;;;;;;13.35;4.28;;;;;;;17.29;75.14;100266.16;4181522;28;20103;-68
2022/10/24 09:37:49;;;;;;;10.43;3.30;;;;;;;17.26;75.40;100268.84;4183533;28;20124;-69